TimeEST,TemperatureF,Dew PointF,Humidity,Sea Level PressureIn,VisibilityMPH,Wind Direction,Wind SpeedMPH,Gust SpeedMPH,PrecipitationIn,Events,Conditions,WindDirDegrees,DateUTC
12:53 AM,28.0,17.1,63,30.35,10.0,Calm,Calm,-,N/A,,Clear,0,2011-11-18 05:53:00
1:53 AM,25.0,18.0,75,30.37,10.0,Calm,Calm,-,N/A,,Clear,0,2011-11-18 06:53:00
2:53 AM,21.9,18.0,85,30.39,10.0,Calm,Calm,-,N/A,,Clear,0,2011-11-18 07:53:00
3:53 AM,23.0,18.0,81,30.39,10.0,Calm,Calm,-,N/A,,Clear,0,2011-11-18 08:53:00
4:53 AM,21.9,18.0,85,30.41,10.0,Calm,Calm,-,N/A,,Clear,0,2011-11-18 09:53:00
5:53 AM,21.9,18.0,85,30.42,10.0,South,3.5,-,N/A,,Clear,180,2011-11-18 10:53:00
6:53 AM,21.9,18.0,85,30.43,10.0,SSE,3.5,-,N/A,,Clear,160,2011-11-18 11:53:00
7:53 AM,24.1,19.9,84,30.45,10.0,SSE,3.5,-,N/A,,Clear,160,2011-11-18 12:53:00
8:53 AM,30.9,23.0,72,30.45,10.0,South,3.5,-,N/A,,Clear,170,2011-11-18 13:53:00
9:53 AM,37.0,19.9,50,30.44,10.0,SSW,9.2,-,N/A,,Clear,200,2011-11-18 14:53:00
11:53 AM,43.0,17.1,35,30.40,10.0,SSW,11.5,-,N/A,,Clear,200,2011-11-18 16:53:00
12:53 PM,45.0,15.1,30,30.37,10.0,South,12.7,19.6,N/A,,Clear,190,2011-11-18 17:53:00
1:53 PM,45.0,16.0,31,30.34,10.0,SSW,12.7,-,N/A,,Clear,200,2011-11-18 18:53:00
2:53 PM,46.0,16.0,30,30.32,10.0,South,11.5,-,N/A,,Mostly Cloudy,190,2011-11-18 19:53:00
3:53 PM,44.1,16.0,32,30.30,10.0,South,8.1,-,N/A,,Clear,170,2011-11-18 20:53:00
4:53 PM,42.1,18.0,38,30.29,10.0,SSE,8.1,-,N/A,,Clear,160,2011-11-18 21:53:00
5:53 PM,39.9,17.1,40,30.27,10.0,SSE,8.1,-,N/A,,Clear,150,2011-11-18 22:53:00
7:53 PM,37.9,18.0,45,30.25,10.0,SSE,6.9,-,N/A,,Clear,150,2011-11-19 00:53:00
8:53 PM,37.9,18.0,45,30.22,10.0,SSE,8.1,-,N/A,,Clear,160,2011-11-19 01:53:00
9:53 PM,37.0,18.0,46,30.21,10.0,SSE,6.9,-,N/A,,Clear,150,2011-11-19 02:53:00
10:53 PM,37.9,19.0,47,30.19,10.0,SSE,6.9,-,N/A,,Clear,160,2011-11-19 03:53:00
11:53 PM,43.0,18.0,37,30.19,10.0,South,8.1,-,N/A,,Clear,180,2011-11-19 04:53:00